sensor_id;sensor_type;location;lat;lon;timestamp;P1;durP1;ratioP1;P2;durP2;ratioP2
48853;SDS011;34673;52.808;17.856;2023-11-22T00:00:33;16.65;;;7.40;;
48853;SDS011;34673;52.808;17.856;2023-11-22T00:03:01;17.33;;;7.13;;
48853;SDS011;34673;52.808;17.856;2023-11-22T00:05:28;15.43;;;7.40;;
48853;SDS011;34673;52.808;17.856;2023-11-22T00:07:55;15.88;;;8.00;;
48853;SDS011;34673;52.808;17.856;2023-11-22T00:10:23;16.88;;;7.57;;
48853;SDS011;34673;52.808;17.856;2023-11-22T00:12:51;17.17;;;7.80;;
48853;SDS011;34673;52.808;17.856;2023-11-22T00:15:18;14.95;;;7.80;;
48853;SDS011;34673;52.808;17.856;2023-11-22T00:17:45;14.20;;;7.00;;
48853;SDS011;34673;52.808;17.856;2023-11-22T00:20:13;15.48;;;7.20;;
48853;SDS011;34673;52.808;17.856;2023-11-22T00:22:40;15.30;;;7.43;;
48853;SDS011;34673;52.808;17.856;2023-11-22T00:25:07;16.63;;;7.57;;
48853;SDS011;34673;52.808;17.856;2023-11-22T00:27:40;14.65;;;7.38;;
48853;SDS011;34673;52.808;17.856;2023-11-22T00:30:08;18.45;;;7.70;;
48853;SDS011;34673;52.808;17.856;2023-11-22T00:32:36;15.82;;;7.63;;
48853;SDS011;34673;52.808;17.856;2023-11-22T00:35:04;17.38;;;7.88;;
48853;SDS011;34673;52.808;17.856;2023-11-22T00:37:31;15.95;;;7.28;;
48853;SDS011;34673;52.808;17.856;2023-11-22T00:40:03;17.70;;;8.45;;
48853;SDS011;34673;52.808;17.856;2023-11-22T00:42:37;16.55;;;7.72;;
48853;SDS011;34673;52.808;17.856;2023-11-22T00:45:07;15.80;;;8.07;;
48853;SDS011;34673;52.808;17.856;2023-11-22T00:47:36;14.68;;;7.50;;
48853;SDS011;34673;52.808;17.856;2023-11-22T00:50:04;17.90;;;8.73;;
48853;SDS011;34673;52.808;17.856;2023-11-22T00:52:32;17.55;;;8.07;;
48853;SDS011;34673;52.808;17.856;2023-11-22T00:54:59;19.85;;;9.30;;
48853;SDS011;34673;52.808;17.856;2023-11-22T00:57:27;20.27;;;8.60;;
48853;SDS011;34673;52.808;17.856;2023-11-22T00:59:54;15.18;;;7.65;;
48853;SDS011;34673;52.808;17.856;2023-11-22T01:02:21;17.42;;;8.45;;
48853;SDS011;34673;52.808;17.856;2023-11-22T01:04:48;17.35;;;8.23;;
48853;SDS011;34673;52.808;17.856;2023-11-22T01:07:15;15.75;;;8.77;;
48853;SDS011;34673;52.808;17.856;2023-11-22T01:09:43;18.48;;;9.13;;
48853;SDS011;34673;52.808;17.856;2023-11-22T01:12:10;18.10;;;8.40;;
48853;SDS011;34673;52.808;17.856;2023-11-22T01:14:38;17.17;;;8.80;;
48853;SDS011;34673;52.808;17.856;2023-11-22T01:17:06;18.98;;;8.27;;
48853;SDS011;34673;52.808;17.856;2023-11-22T01:19:33;19.05;;;9.07;;
48853;SDS011;34673;52.808;17.856;2023-11-22T01:22:00;17.00;;;8.13;;
48853;SDS011;34673;52.808;17.856;2023-11-22T01:24:27;17.95;;;8.43;;
48853;SDS011;34673;52.808;17.856;2023-11-22T01:26:56;16.80;;;8.98;;
48853;SDS011;34673;52.808;17.856;2023-11-22T01:29:23;17.38;;;8.60;;
48853;SDS011;34673;52.808;17.856;2023-11-22T01:31:50;15.65;;;7.72;;
48853;SDS011;34673;52.808;17.856;2023-11-22T01:34:17;17.90;;;8.43;;
48853;SDS011;34673;52.808;17.856;2023-11-22T01:36:45;21.20;;;9.80;;
48853;SDS011;34673;52.808;17.856;2023-11-22T01:39:12;18.73;;;9.13;;
48853;SDS011;34673;52.808;17.856;2023-11-22T01:41:40;16.77;;;8.95;;
48853;SDS011;34673;52.808;17.856;2023-11-22T01:44:11;17.02;;;8.75;;
48853;SDS011;34673;52.808;17.856;2023-11-22T01:46:39;16.80;;;8.35;;
48853;SDS011;34673;52.808;17.856;2023-11-22T01:49:08;19.42;;;8.98;;
48853;SDS011;34673;52.808;17.856;2023-11-22T01:51:37;19.17;;;9.43;;
48853;SDS011;34673;52.808;17.856;2023-11-22T01:54:05;14.90;;;8.57;;
48853;SDS011;34673;52.808;17.856;2023-11-22T01:56:35;17.25;;;8.63;;
48853;SDS011;34673;52.808;17.856;2023-11-22T01:59:04;18.00;;;8.38;;
48853;SDS011;34673;52.808;17.856;2023-11-22T02:01:31;18.10;;;9.52;;
48853;SDS011;34673;52.808;17.856;2023-11-22T02:03:59;15.50;;;8.43;;
48853;SDS011;34673;52.808;17.856;2023-11-22T02:06:26;18.17;;;8.63;;
48853;SDS011;34673;52.808;17.856;2023-11-22T02:08:54;17.35;;;8.85;;
48853;SDS011;34673;52.808;17.856;2023-11-22T02:11:22;19.90;;;9.35;;
48853;SDS011;34673;52.808;17.856;2023-11-22T02:13:51;18.17;;;8.32;;
48853;SDS011;34673;52.808;17.856;2023-11-22T02:16:18;18.65;;;9.10;;
48853;SDS011;34673;52.808;17.856;2023-11-22T02:18:49;16.92;;;8.43;;
48853;SDS011;34673;52.808;17.856;2023-11-22T02:21:17;18.90;;;9.15;;
48853;SDS011;34673;52.808;17.856;2023-11-22T02:23:44;17.65;;;9.23;;
48853;SDS011;34673;52.808;17.856;2023-11-22T02:26:12;20.27;;;9.80;;
48853;SDS011;34673;52.808;17.856;2023-11-22T02:28:39;18.08;;;9.40;;
48853;SDS011;34673;52.808;17.856;2023-11-22T02:31:06;17.65;;;8.82;;
48853;SDS011;34673;52.808;17.856;2023-11-22T02:33:35;19.25;;;9.20;;
48853;SDS011;34673;52.808;17.856;2023-11-22T02:36:02;16.95;;;8.93;;
48853;SDS011;34673;52.808;17.856;2023-11-22T02:38:30;18.63;;;8.95;;
48853;SDS011;34673;52.808;17.856;2023-11-22T02:40:57;19.75;;;9.57;;
48853;SDS011;34673;52.808;17.856;2023-11-22T02:43:25;17.52;;;9.43;;
48853;SDS011;34673;52.808;17.856;2023-11-22T02:45:52;20.15;;;9.70;;
48853;SDS011;34673;52.808;17.856;2023-11-22T02:48:20;19.40;;;9.60;;
48853;SDS011;34673;52.808;17.856;2023-11-22T02:50:47;17.48;;;9.07;;
48853;SDS011;34673;52.808;17.856;2023-11-22T02:53:15;20.17;;;9.15;;
48853;SDS011;34673;52.808;17.856;2023-11-22T02:55:43;18.90;;;10.20;;
48853;SDS011;34673;52.808;17.856;2023-11-22T02:58:11;20.80;;;9.98;;
48853;SDS011;34673;52.808;17.856;2023-11-22T03:00:42;24.38;;;10.90;;
48853;SDS011;34673;52.808;17.856;2023-11-22T03:03:10;22.33;;;10.35;;
48853;SDS011;34673;52.808;17.856;2023-11-22T03:05:38;21.77;;;10.30;;
48853;SDS011;34673;52.808;17.856;2023-11-22T03:08:07;22.60;;;11.00;;
48853;SDS011;34673;52.808;17.856;2023-11-22T03:10:34;21.63;;;10.82;;
48853;SDS011;34673;52.808;17.856;2023-11-22T03:13:02;22.13;;;10.35;;
48853;SDS011;34673;52.808;17.856;2023-11-22T03:15:31;21.70;;;10.73;;
48853;SDS011;34673;52.808;17.856;2023-11-22T03:17:58;23.25;;;11.00;;
48853;SDS011;34673;52.808;17.856;2023-11-22T03:20:27;20.73;;;10.32;;
48853;SDS011;34673;52.808;17.856;2023-11-22T03:22:54;19.58;;;10.93;;
48853;SDS011;34673;52.808;17.856;2023-11-22T03:25:22;24.00;;;11.23;;
48853;SDS011;34673;52.808;17.856;2023-11-22T03:27:50;23.13;;;11.38;;
48853;SDS011;34673;52.808;17.856;2023-11-22T03:30:18;23.67;;;11.27;;
48853;SDS011;34673;52.808;17.856;2023-11-22T03:35:17;22.83;;;11.68;;
48853;SDS011;34673;52.808;17.856;2023-11-22T03:37:44;26.25;;;12.70;;
48853;SDS011;34673;52.808;17.856;2023-11-22T03:40:11;24.15;;;13.05;;
48853;SDS011;34673;52.808;17.856;2023-11-22T03:42:40;26.10;;;13.65;;
48853;SDS011;34673;52.808;17.856;2023-11-22T03:45:08;26.42;;;13.90;;
48853;SDS011;34673;52.808;17.856;2023-11-22T03:47:36;25.55;;;13.82;;
48853;SDS011;34673;52.808;17.856;2023-11-22T03:50:06;25.48;;;13.15;;
48853;SDS011;34673;52.808;17.856;2023-11-22T03:52:33;28.60;;;13.15;;
48853;SDS011;34673;52.808;17.856;2023-11-22T03:55:01;26.70;;;13.23;;
48853;SDS011;34673;52.808;17.856;2023-11-22T03:57:29;27.55;;;13.07;;
48853;SDS011;34673;52.808;17.856;2023-11-22T03:59:56;27.08;;;12.57;;
48853;SDS011;34673;52.808;17.856;2023-11-22T04:02:23;25.02;;;12.80;;
48853;SDS011;34673;52.808;17.856;2023-11-22T04:04:50;22.95;;;12.35;;
48853;SDS011;34673;52.808;17.856;2023-11-22T04:07:18;26.15;;;12.73;;
48853;SDS011;34673;52.808;17.856;2023-11-22T04:09:45;26.40;;;13.13;;
48853;SDS011;34673;52.808;17.856;2023-11-22T04:12:13;26.98;;;14.05;;
48853;SDS011;34673;52.808;17.856;2023-11-22T04:14:40;27.92;;;13.95;;
48853;SDS011;34673;52.808;17.856;2023-11-22T04:17:08;28.00;;;13.35;;
48853;SDS011;34673;52.808;17.856;2023-11-22T04:19:35;28.17;;;14.15;;
48853;SDS011;34673;52.808;17.856;2023-11-22T04:22:03;27.48;;;13.40;;
48853;SDS011;34673;52.808;17.856;2023-11-22T04:24:30;30.83;;;13.63;;
48853;SDS011;34673;52.808;17.856;2023-11-22T04:26:58;32.33;;;14.43;;
48853;SDS011;34673;52.808;17.856;2023-11-22T04:29:25;29.42;;;13.50;;
48853;SDS011;34673;52.808;17.856;2023-11-22T04:31:53;26.55;;;13.43;;
48853;SDS011;34673;52.808;17.856;2023-11-22T04:34:20;28.45;;;14.07;;
48853;SDS011;34673;52.808;17.856;2023-11-22T04:36:47;27.92;;;13.63;;
48853;SDS011;34673;52.808;17.856;2023-11-22T04:39:14;31.17;;;14.60;;
48853;SDS011;34673;52.808;17.856;2023-11-22T04:41:42;26.02;;;12.25;;
48853;SDS011;34673;52.808;17.856;2023-11-22T04:44:09;23.88;;;11.77;;
48853;SDS011;34673;52.808;17.856;2023-11-22T04:46:36;29.23;;;13.20;;
48853;SDS011;34673;52.808;17.856;2023-11-22T04:49:04;27.75;;;13.43;;
48853;SDS011;34673;52.808;17.856;2023-11-22T04:51:31;30.17;;;14.40;;
48853;SDS011;34673;52.808;17.856;2023-11-22T04:53:59;25.75;;;13.10;;
48853;SDS011;34673;52.808;17.856;2023-11-22T04:56:26;27.30;;;13.15;;
48853;SDS011;34673;52.808;17.856;2023-11-22T04:58:53;26.98;;;13.50;;
48853;SDS011;34673;52.808;17.856;2023-11-22T05:01:20;26.27;;;14.13;;
48853;SDS011;34673;52.808;17.856;2023-11-22T05:03:49;28.30;;;13.43;;
48853;SDS011;34673;52.808;17.856;2023-11-22T05:06:17;27.55;;;13.68;;
48853;SDS011;34673;52.808;17.856;2023-11-22T05:08:44;31.00;;;13.93;;
48853;SDS011;34673;52.808;17.856;2023-11-22T05:11:11;27.95;;;13.45;;
48853;SDS011;34673;52.808;17.856;2023-11-22T05:13:39;25.30;;;12.35;;
48853;SDS011;34673;52.808;17.856;2023-11-22T05:16:06;29.63;;;14.05;;
48853;SDS011;34673;52.808;17.856;2023-11-22T05:18:34;28.45;;;13.50;;
48853;SDS011;34673;52.808;17.856;2023-11-22T05:21:02;31.75;;;14.30;;
48853;SDS011;34673;52.808;17.856;2023-11-22T05:23:32;27.13;;;13.57;;
48853;SDS011;34673;52.808;17.856;2023-11-22T05:26:00;29.50;;;13.45;;
48853;SDS011;34673;52.808;17.856;2023-11-22T05:28:27;30.75;;;14.77;;
48853;SDS011;34673;52.808;17.856;2023-11-22T05:30:55;30.52;;;14.38;;
48853;SDS011;34673;52.808;17.856;2023-11-22T05:33:22;25.65;;;13.32;;
48853;SDS011;34673;52.808;17.856;2023-11-22T05:35:50;28.38;;;14.15;;
48853;SDS011;34673;52.808;17.856;2023-11-22T05:38:18;29.90;;;14.73;;
48853;SDS011;34673;52.808;17.856;2023-11-22T05:40:45;27.13;;;13.40;;
48853;SDS011;34673;52.808;17.856;2023-11-22T05:43:12;28.02;;;13.88;;
48853;SDS011;34673;52.808;17.856;2023-11-22T05:45:40;32.13;;;15.38;;
48853;SDS011;34673;52.808;17.856;2023-11-22T05:48:07;27.60;;;13.77;;
48853;SDS011;34673;52.808;17.856;2023-11-22T05:50:34;25.23;;;12.77;;
48853;SDS011;34673;52.808;17.856;2023-11-22T05:53:01;26.15;;;13.40;;
48853;SDS011;34673;52.808;17.856;2023-11-22T05:55:29;26.60;;;13.73;;
48853;SDS011;34673;52.808;17.856;2023-11-22T05:57:57;29.10;;;13.98;;
48853;SDS011;34673;52.808;17.856;2023-11-22T06:00:24;28.10;;;13.95;;
48853;SDS011;34673;52.808;17.856;2023-11-22T06:02:53;28.23;;;14.38;;
48853;SDS011;34673;52.808;17.856;2023-11-22T06:05:21;28.75;;;14.25;;
48853;SDS011;34673;52.808;17.856;2023-11-22T06:07:49;28.65;;;13.50;;
48853;SDS011;34673;52.808;17.856;2023-11-22T06:10:16;30.15;;;14.68;;
48853;SDS011;34673;52.808;17.856;2023-11-22T06:12:43;29.25;;;14.40;;
48853;SDS011;34673;52.808;17.856;2023-11-22T06:15:11;36.03;;;16.77;;
48853;SDS011;34673;52.808;17.856;2023-11-22T06:17:38;29.55;;;15.07;;
48853;SDS011;34673;52.808;17.856;2023-11-22T06:20:06;31.60;;;15.90;;
48853;SDS011;34673;52.808;17.856;2023-11-22T06:22:34;32.40;;;15.15;;
48853;SDS011;34673;52.808;17.856;2023-11-22T06:25:01;32.65;;;16.45;;
48853;SDS011;34673;52.808;17.856;2023-11-22T06:27:29;30.40;;;16.10;;
48853;SDS011;34673;52.808;17.856;2023-11-22T06:29:56;32.65;;;15.57;;
48853;SDS011;34673;52.808;17.856;2023-11-22T06:32:24;31.85;;;14.45;;
48853;SDS011;34673;52.808;17.856;2023-11-22T06:34:51;31.33;;;14.98;;
48853;SDS011;34673;52.808;17.856;2023-11-22T06:37:19;32.10;;;16.67;;
48853;SDS011;34673;52.808;17.856;2023-11-22T06:39:46;32.85;;;16.33;;
48853;SDS011;34673;52.808;17.856;2023-11-22T06:42:14;30.85;;;14.90;;
48853;SDS011;34673;52.808;17.856;2023-11-22T06:44:41;32.05;;;15.10;;
48853;SDS011;34673;52.808;17.856;2023-11-22T06:47:09;34.15;;;15.18;;
48853;SDS011;34673;52.808;17.856;2023-11-22T06:49:36;27.60;;;13.75;;
48853;SDS011;34673;52.808;17.856;2023-11-22T06:52:04;28.05;;;14.30;;
48853;SDS011;34673;52.808;17.856;2023-11-22T06:54:31;33.40;;;16.33;;
48853;SDS011;34673;52.808;17.856;2023-11-22T06:56:58;34.90;;;14.52;;
48853;SDS011;34673;52.808;17.856;2023-11-22T06:59:25;29.40;;;14.57;;
48853;SDS011;34673;52.808;17.856;2023-11-22T07:01:53;29.15;;;14.88;;
48853;SDS011;34673;52.808;17.856;2023-11-22T07:04:20;28.05;;;13.90;;
48853;SDS011;34673;52.808;17.856;2023-11-22T07:06:49;27.83;;;14.48;;
48853;SDS011;34673;52.808;17.856;2023-11-22T07:09:16;30.77;;;15.57;;
48853;SDS011;34673;52.808;17.856;2023-11-22T07:11:43;33.47;;;15.98;;
48853;SDS011;34673;52.808;17.856;2023-11-22T07:14:11;31.38;;;16.40;;
48853;SDS011;34673;52.808;17.856;2023-11-22T07:16:38;32.15;;;16.00;;
48853;SDS011;34673;52.808;17.856;2023-11-22T07:19:05;33.42;;;16.50;;
48853;SDS011;34673;52.808;17.856;2023-11-22T07:21:33;33.58;;;16.15;;
48853;SDS011;34673;52.808;17.856;2023-11-22T07:24:04;31.98;;;15.48;;
48853;SDS011;34673;52.808;17.856;2023-11-22T07:26:33;33.03;;;14.97;;
48853;SDS011;34673;52.808;17.856;2023-11-22T07:29:01;27.92;;;14.32;;
48853;SDS011;34673;52.808;17.856;2023-11-22T07:31:28;34.42;;;15.30;;
48853;SDS011;34673;52.808;17.856;2023-11-22T07:33:56;31.40;;;16.60;;
48853;SDS011;34673;52.808;17.856;2023-11-22T07:36:23;30.67;;;15.25;;
48853;SDS011;34673;52.808;17.856;2023-11-22T07:38:51;44.78;;;24.08;;
48853;SDS011;34673;52.808;17.856;2023-11-22T07:41:20;43.97;;;22.33;;
48853;SDS011;34673;52.808;17.856;2023-11-22T07:43:48;39.53;;;18.05;;
48853;SDS011;34673;52.808;17.856;2023-11-22T07:46:16;47.25;;;20.65;;
48853;SDS011;34673;52.808;17.856;2023-11-22T07:48:45;54.70;;;21.83;;
48853;SDS011;34673;52.808;17.856;2023-11-22T07:51:14;39.13;;;18.75;;
48853;SDS011;34673;52.808;17.856;2023-11-22T07:53:45;42.53;;;19.15;;
48853;SDS011;34673;52.808;17.856;2023-11-22T07:56:12;40.72;;;18.63;;
48853;SDS011;34673;52.808;17.856;2023-11-22T07:58:42;37.15;;;17.77;;
48853;SDS011;34673;52.808;17.856;2023-11-22T08:01:09;39.72;;;18.83;;
48853;SDS011;34673;52.808;17.856;2023-11-22T08:03:40;38.65;;;18.20;;
48853;SDS011;34673;52.808;17.856;2023-11-22T08:06:14;39.92;;;18.80;;
48853;SDS011;34673;52.808;17.856;2023-11-22T08:08:43;39.42;;;18.75;;
48853;SDS011;34673;52.808;17.856;2023-11-22T08:11:13;33.67;;;16.70;;
48853;SDS011;34673;52.808;17.856;2023-11-22T08:13:47;35.30;;;17.88;;
48853;SDS011;34673;52.808;17.856;2023-11-22T08:16:15;38.45;;;17.67;;
48853;SDS011;34673;52.808;17.856;2023-11-22T08:18:42;34.47;;;17.25;;
48853;SDS011;34673;52.808;17.856;2023-11-22T08:21:10;37.25;;;17.20;;
48853;SDS011;34673;52.808;17.856;2023-11-22T08:23:38;33.60;;;17.08;;
48853;SDS011;34673;52.808;17.856;2023-11-22T08:26:06;39.03;;;17.58;;
48853;SDS011;34673;52.808;17.856;2023-11-22T08:28:35;37.33;;;17.07;;
48853;SDS011;34673;52.808;17.856;2023-11-22T08:31:02;34.47;;;17.55;;
48853;SDS011;34673;52.808;17.856;2023-11-22T08:33:31;34.17;;;15.95;;
48853;SDS011;34673;52.808;17.856;2023-11-22T08:35:58;30.73;;;15.23;;
48853;SDS011;34673;52.808;17.856;2023-11-22T08:38:27;27.50;;;14.87;;
48853;SDS011;34673;52.808;17.856;2023-11-22T08:40:55;27.95;;;14.02;;
48853;SDS011;34673;52.808;17.856;2023-11-22T08:43:22;28.17;;;15.07;;
48853;SDS011;34673;52.808;17.856;2023-11-22T08:45:52;28.73;;;14.50;;
48853;SDS011;34673;52.808;17.856;2023-11-22T08:48:34;28.10;;;14.40;;
48853;SDS011;34673;52.808;17.856;2023-11-22T08:51:05;28.63;;;14.27;;
48853;SDS011;34673;52.808;17.856;2023-11-22T08:53:34;24.67;;;13.45;;
48853;SDS011;34673;52.808;17.856;2023-11-22T08:56:02;23.13;;;12.32;;
48853;SDS011;34673;52.808;17.856;2023-11-22T08:58:32;26.52;;;13.07;;
48853;SDS011;34673;52.808;17.856;2023-11-22T09:01:00;22.35;;;12.05;;
48853;SDS011;34673;52.808;17.856;2023-11-22T09:03:31;22.48;;;12.23;;
48853;SDS011;34673;52.808;17.856;2023-11-22T09:05:59;24.77;;;12.70;;
48853;SDS011;34673;52.808;17.856;2023-11-22T09:08:27;21.48;;;12.43;;
48853;SDS011;34673;52.808;17.856;2023-11-22T09:13:24;22.60;;;11.82;;
48853;SDS011;34673;52.808;17.856;2023-11-22T09:15:52;20.70;;;11.27;;
48853;SDS011;34673;52.808;17.856;2023-11-22T09:18:19;20.58;;;11.10;;
48853;SDS011;34673;52.808;17.856;2023-11-22T09:20:48;21.45;;;11.40;;
48853;SDS011;34673;52.808;17.856;2023-11-22T09:23:16;26.48;;;11.20;;
48853;SDS011;34673;52.808;17.856;2023-11-22T09:25:43;25.92;;;13.07;;
48853;SDS011;34673;52.808;17.856;2023-11-22T09:28:11;28.60;;;13.65;;
48853;SDS011;34673;52.808;17.856;2023-11-22T09:30:38;26.08;;;12.82;;
48853;SDS011;34673;52.808;17.856;2023-11-22T09:33:08;29.67;;;14.57;;
48853;SDS011;34673;52.808;17.856;2023-11-22T09:35:36;29.20;;;13.65;;
48853;SDS011;34673;52.808;17.856;2023-11-22T09:38:07;31.23;;;15.27;;
48853;SDS011;34673;52.808;17.856;2023-11-22T09:40:44;28.73;;;15.07;;
48853;SDS011;34673;52.808;17.856;2023-11-22T09:43:13;28.57;;;15.03;;
48853;SDS011;34673;52.808;17.856;2023-11-22T09:45:48;31.27;;;15.43;;
48853;SDS011;34673;52.808;17.856;2023-11-22T09:48:22;33.70;;;15.80;;
48853;SDS011;34673;52.808;17.856;2023-11-22T09:58:46;28.73;;;14.60;;
48853;SDS011;34673;52.808;17.856;2023-11-22T10:01:15;28.08;;;14.45;;
48853;SDS011;34673;52.808;17.856;2023-11-22T10:03:44;32.20;;;15.23;;
48853;SDS011;34673;52.808;17.856;2023-11-22T10:06:12;35.80;;;16.58;;
48853;SDS011;34673;52.808;17.856;2023-11-22T10:08:41;42.93;;;19.40;;
48853;SDS011;34673;52.808;17.856;2023-11-22T10:11:09;32.08;;;15.00;;
48853;SDS011;34673;52.808;17.856;2023-11-22T10:13:36;30.20;;;15.52;;
48853;SDS011;34673;52.808;17.856;2023-11-22T10:16:10;29.85;;;14.73;;
48853;SDS011;34673;52.808;17.856;2023-11-22T10:18:40;33.03;;;16.40;;
48853;SDS011;34673;52.808;17.856;2023-11-22T10:21:24;28.85;;;13.25;;
48853;SDS011;34673;52.808;17.856;2023-11-22T10:23:57;27.95;;;13.40;;
48853;SDS011;34673;52.808;17.856;2023-11-22T10:26:31;26.33;;;13.40;;
48853;SDS011;34673;52.808;17.856;2023-11-22T10:28:59;22.70;;;12.52;;
48853;SDS011;34673;52.808;17.856;2023-11-22T10:31:27;22.92;;;12.13;;
48853;SDS011;34673;52.808;17.856;2023-11-22T10:33:55;26.58;;;13.15;;
48853;SDS011;34673;52.808;17.856;2023-11-22T10:36:25;23.48;;;12.60;;
48853;SDS011;34673;52.808;17.856;2023-11-22T10:38:52;24.10;;;12.55;;
48853;SDS011;34673;52.808;17.856;2023-11-22T10:41:21;24.30;;;12.77;;
48853;SDS011;34673;52.808;17.856;2023-11-22T10:46:29;21.23;;;11.32;;
48853;SDS011;34673;52.808;17.856;2023-11-22T10:48:57;22.30;;;11.15;;
48853;SDS011;34673;52.808;17.856;2023-11-22T10:51:26;23.98;;;10.75;;
48853;SDS011;34673;52.808;17.856;2023-11-22T10:53:58;21.23;;;11.10;;
48853;SDS011;34673;52.808;17.856;2023-11-22T10:56:38;22.52;;;11.38;;
48853;SDS011;34673;52.808;17.856;2023-11-22T10:59:14;21.50;;;10.52;;
48853;SDS011;34673;52.808;17.856;2023-11-22T11:01:44;22.40;;;10.52;;
48853;SDS011;34673;52.808;17.856;2023-11-22T11:04:19;21.75;;;10.52;;
48853;SDS011;34673;52.808;17.856;2023-11-22T11:06:51;19.23;;;10.40;;
48853;SDS011;34673;52.808;17.856;2023-11-22T11:09:20;17.77;;;9.75;;
48853;SDS011;34673;52.808;17.856;2023-11-22T11:11:51;19.17;;;9.75;;
48853;SDS011;34673;52.808;17.856;2023-11-22T11:14:18;21.45;;;9.82;;
48853;SDS011;34673;52.808;17.856;2023-11-22T11:16:46;19.48;;;10.15;;
48853;SDS011;34673;52.808;17.856;2023-11-22T11:21:48;18.38;;;8.63;;
48853;SDS011;34673;52.808;17.856;2023-11-22T11:24:17;18.08;;;9.70;;
48853;SDS011;34673;52.808;17.856;2023-11-22T11:26:48;19.75;;;9.85;;
48853;SDS011;34673;52.808;17.856;2023-11-22T11:29:29;29.58;;;12.02;;
48853;SDS011;34673;52.808;17.856;2023-11-22T11:32:02;27.73;;;12.07;;
48853;SDS011;34673;52.808;17.856;2023-11-22T11:34:30;39.72;;;14.90;;
48853;SDS011;34673;52.808;17.856;2023-11-22T11:36:59;24.73;;;11.85;;
48853;SDS011;34673;52.808;17.856;2023-11-22T11:39:27;32.85;;;13.88;;
48853;SDS011;34673;52.808;17.856;2023-11-22T11:42:08;23.05;;;11.48;;
48853;SDS011;34673;52.808;17.856;2023-11-22T11:45:25;23.30;;;11.27;;
48853;SDS011;34673;52.808;17.856;2023-11-22T11:47:33;27.20;;;12.82;;
48853;SDS011;34673;52.808;17.856;2023-11-22T11:50:01;36.25;;;15.23;;
48853;SDS011;34673;52.808;17.856;2023-11-22T11:52:29;27.25;;;13.02;;
48853;SDS011;34673;52.808;17.856;2023-11-22T11:54:58;32.05;;;14.50;;
48853;SDS011;34673;52.808;17.856;2023-11-22T11:57:30;20.58;;;10.23;;
48853;SDS011;34673;52.808;17.856;2023-11-22T11:59:58;44.38;;;15.13;;
48853;SDS011;34673;52.808;17.856;2023-11-22T12:02:36;24.02;;;11.45;;
48853;SDS011;34673;52.808;17.856;2023-11-22T12:05:04;26.95;;;12.63;;
48853;SDS011;34673;52.808;17.856;2023-11-22T12:07:36;25.77;;;13.07;;
48853;SDS011;34673;52.808;17.856;2023-11-22T12:10:04;24.15;;;12.05;;
48853;SDS011;34673;52.808;17.856;2023-11-22T12:12:35;31.02;;;13.75;;
48853;SDS011;34673;52.808;17.856;2023-11-22T12:15:02;27.27;;;12.85;;
48853;SDS011;34673;52.808;17.856;2023-11-22T12:17:31;25.48;;;12.45;;
48853;SDS011;34673;52.808;17.856;2023-11-22T12:20:08;21.63;;;10.82;;
48853;SDS011;34673;52.808;17.856;2023-11-22T12:22:48;23.83;;;10.68;;
48853;SDS011;34673;52.808;17.856;2023-11-22T12:25:15;18.48;;;9.20;;
48853;SDS011;34673;52.808;17.856;2023-11-22T12:27:42;18.38;;;9.93;;
48853;SDS011;34673;52.808;17.856;2023-11-22T12:30:33;20.52;;;10.10;;
48853;SDS011;34673;52.808;17.856;2023-11-22T12:33:06;28.73;;;11.93;;
48853;SDS011;34673;52.808;17.856;2023-11-22T12:35:36;20.30;;;9.98;;
48853;SDS011;34673;52.808;17.856;2023-11-22T12:38:05;17.60;;;8.93;;
48853;SDS011;34673;52.808;17.856;2023-11-22T12:40:33;16.88;;;8.80;;
48853;SDS011;34673;52.808;17.856;2023-11-22T12:43:01;17.00;;;9.15;;
48853;SDS011;34673;52.808;17.856;2023-11-22T12:45:30;18.88;;;8.90;;
48853;SDS011;34673;52.808;17.856;2023-11-22T12:48:04;16.30;;;9.00;;
48853;SDS011;34673;52.808;17.856;2023-11-22T12:50:47;19.73;;;8.45;;
48853;SDS011;34673;52.808;17.856;2023-11-22T12:53:14;17.20;;;8.88;;
48853;SDS011;34673;52.808;17.856;2023-11-22T12:55:43;20.77;;;9.65;;
48853;SDS011;34673;52.808;17.856;2023-11-22T12:58:12;21.83;;;10.73;;
48853;SDS011;34673;52.808;17.856;2023-11-22T13:00:40;21.50;;;10.57;;
48853;SDS011;34673;52.808;17.856;2023-11-22T13:03:08;22.65;;;10.10;;
48853;SDS011;34673;52.808;17.856;2023-11-22T13:05:39;20.05;;;10.00;;
48853;SDS011;34673;52.808;17.856;2023-11-22T13:08:13;20.55;;;10.50;;
48853;SDS011;34673;52.808;17.856;2023-11-22T13:10:44;22.13;;;11.45;;
48853;SDS011;34673;52.808;17.856;2023-11-22T13:13:26;22.88;;;11.30;;
48853;SDS011;34673;52.808;17.856;2023-11-22T13:15:55;23.90;;;10.82;;
48853;SDS011;34673;52.808;17.856;2023-11-22T13:18:22;28.85;;;12.95;;
48853;SDS011;34673;52.808;17.856;2023-11-22T13:20:49;23.10;;;11.35;;
48853;SDS011;34673;52.808;17.856;2023-11-22T13:23:17;25.23;;;11.65;;
48853;SDS011;34673;52.808;17.856;2023-11-22T13:25:45;22.50;;;11.68;;
48853;SDS011;34673;52.808;17.856;2023-11-22T13:28:13;25.85;;;11.48;;
48853;SDS011;34673;52.808;17.856;2023-11-22T13:30:43;23.08;;;11.23;;
48853;SDS011;34673;52.808;17.856;2023-11-22T13:33:10;23.08;;;11.85;;
48853;SDS011;34673;52.808;17.856;2023-11-22T13:35:38;21.95;;;10.75;;
48853;SDS011;34673;52.808;17.856;2023-11-22T13:38:06;20.63;;;10.13;;
48853;SDS011;34673;52.808;17.856;2023-11-22T13:40:39;24.10;;;11.50;;
48853;SDS011;34673;52.808;17.856;2023-11-22T13:43:07;22.48;;;11.05;;
48853;SDS011;34673;52.808;17.856;2023-11-22T13:45:35;26.55;;;11.95;;
48853;SDS011;34673;52.808;17.856;2023-11-22T13:48:05;22.75;;;11.45;;
48853;SDS011;34673;52.808;17.856;2023-11-22T13:50:33;25.67;;;11.57;;
48853;SDS011;34673;52.808;17.856;2023-11-22T13:53:01;22.48;;;11.30;;
48853;SDS011;34673;52.808;17.856;2023-11-22T13:55:30;23.63;;;10.80;;
48853;SDS011;34673;52.808;17.856;2023-11-22T13:57:58;24.42;;;11.57;;
48853;SDS011;34673;52.808;17.856;2023-11-22T14:00:27;24.15;;;11.27;;
48853;SDS011;34673;52.808;17.856;2023-11-22T14:03:03;23.40;;;12.27;;
48853;SDS011;34673;52.808;17.856;2023-11-22T14:05:36;26.92;;;11.52;;
48853;SDS011;34673;52.808;17.856;2023-11-22T14:08:06;22.65;;;11.20;;
48853;SDS011;34673;52.808;17.856;2023-11-22T14:10:33;24.35;;;12.07;;
48853;SDS011;34673;52.808;17.856;2023-11-22T14:13:00;23.58;;;11.55;;
48853;SDS011;34673;52.808;17.856;2023-11-22T14:15:30;23.73;;;11.53;;
48853;SDS011;34673;52.808;17.856;2023-11-22T14:17:58;22.42;;;10.95;;
48853;SDS011;34673;52.808;17.856;2023-11-22T14:20:26;22.38;;;11.43;;
48853;SDS011;34673;52.808;17.856;2023-11-22T14:22:53;23.80;;;11.10;;
48853;SDS011;34673;52.808;17.856;2023-11-22T14:25:20;24.52;;;10.50;;
48853;SDS011;34673;52.808;17.856;2023-11-22T14:27:48;23.08;;;10.68;;
48853;SDS011;34673;52.808;17.856;2023-11-22T14:30:21;20.23;;;9.90;;
48853;SDS011;34673;52.808;17.856;2023-11-22T14:32:49;20.50;;;9.60;;
48853;SDS011;34673;52.808;17.856;2023-11-22T14:35:18;20.60;;;10.15;;
48853;SDS011;34673;52.808;17.856;2023-11-22T14:37:46;22.30;;;10.80;;